Time;durP1;ratioP1;P1;durP2;ratioP2;P2;SDS_P1;SDS_P2;PMS_P1;PMS_P2;Temp;Humidity;BMP_temperature;BMP_pressure;BME280_temperature;BME280_humidity;BME280_pressure;Samples;Min_cycle;Max_cycle;Signal;HPM_P1;HPM_P2
2023/02/13 00:00:50;;;;;;;20.25;11.48;;;23.10;38.60;;;;;;6248599;27;84842;-59
2023/02/13 00:03:51;;;;;;;22.25;12.15;;;23.00;38.50;;;;;;6235227;27;83008;-58
2023/02/13 00:06:51;;;;;;;16.88;11.15;;;23.00;38.70;;;;;;6248422;27;83290;-58
2023/02/13 00:09:52;;;;;;;20.52;12.02;;;23.00;38.50;;;;;;6239111;27;82896;-59
2023/02/13 00:12:52;;;;;;;20.33;11.93;;;23.00;38.40;;;;;;6249790;27;84313;-61
2023/02/13 00:15:53;;;;;;;19.92;12.13;;;23.00;38.50;;;;;;6248427;27;83483;-61
2023/02/13 00:18:53;;;;;;;19.20;11.57;;;23.00;38.60;;;;;;6244693;27;83022;-59
2023/02/13 00:21:54;;;;;;;23.00;12.40;;;23.00;39.00;;;;;;6242211;27;83504;-58
2023/02/13 00:24:56;;;;;;;20.13;12.18;;;23.00;39.10;;;;;;6239627;27;84308;-59
2023/02/13 00:27:56;;;;;;;21.70;13.05;;;23.00;39.00;;;;;;6236140;27;82999;-60
2023/02/13 00:30:57;;;;;;;22.35;13.20;;;23.00;39.00;;;;;;6237615;27;83506;-60
2023/02/13 00:33:57;;;;;;;22.13;13.68;;;23.00;38.80;;;;;;6243831;27;84103;-59
2023/02/13 00:36:58;;;;;;;24.33;13.55;;;23.00;38.80;;;;;;6248420;27;82864;-59
2023/02/13 00:39:58;;;;;;;22.77;14.05;;;23.00;38.90;;;;;;6244814;27;84438;-59
2023/02/13 00:42:59;;;;;;;23.92;14.20;;;23.00;38.90;;;;;;6248704;27;90089;-60
2023/02/13 00:45:59;;;;;;;22.02;13.60;;;23.00;39.20;;;;;;6239952;27;84162;-59
2023/02/13 00:49:00;;;;;;;19.98;12.82;;;22.90;39.10;;;;;;6248097;27;84405;-59
2023/02/13 00:52:00;;;;;;;22.10;13.35;;;22.90;39.10;;;;;;6247813;27;83702;-59
2023/02/13 00:55:01;;;;;;;20.50;12.73;;;22.90;39.10;;;;;;6244506;27;84066;-59
2023/02/13 00:58:02;;;;;;;23.15;13.88;;;22.90;39.10;;;;;;6248109;27;83456;-58
2023/02/13 01:01:02;;;;;;;25.80;13.68;;;22.90;39.20;;;;;;6246946;27;83296;-58
2023/02/13 01:04:03;;;;;;;23.55;12.38;;;22.90;39.20;;;;;;6245621;27;85760;-60
2023/02/13 01:07:03;;;;;;;19.42;13.55;;;22.90;39.20;;;;;;6234060;27;85666;-59
2023/02/13 01:10:04;;;;;;;23.80;13.30;;;22.90;39.20;;;;;;6226191;27;86827;-59
2023/02/13 01:13:05;;;;;;;21.55;13.20;;;22.90;39.20;;;;;;6230727;27;83388;-59
2023/02/13 01:16:06;;;;;;;21.35;12.90;;;22.90;39.30;;;;;;6233131;27;85542;-59
2023/02/13 01:19:07;;;;;;;22.52;13.45;;;22.90;39.00;;;;;;6233368;27;85881;-60
2023/02/13 01:22:07;;;;;;;22.45;12.57;;;22.90;39.10;;;;;;6235319;27;83701;-59
2023/02/13 01:25:08;;;;;;;25.70;13.55;;;22.90;39.90;;;;;;6221699;28;85588;-60
2023/02/13 01:28:08;;;;;;;20.15;12.90;;;22.90;39.20;;;;;;6243989;27;84097;-58
2023/02/13 01:31:09;;;;;;;21.73;12.70;;;22.90;39.30;;;;;;6231989;27;84333;-60
2023/02/13 01:34:09;;;;;;;20.83;12.13;;;22.90;39.30;;;;;;6235914;27;86141;-59
2023/02/13 01:37:10;;;;;;;22.90;13.07;;;22.90;39.20;;;;;;6247512;27;83392;-59
2023/02/13 01:40:11;;;;;;;20.55;12.50;;;22.90;39.30;;;;;;6246823;27;86459;-59
2023/02/13 01:43:11;;;;;;;26.05;12.98;;;22.90;40.10;;;;;;6243061;27;83417;-60
2023/02/13 01:46:12;;;;;;;20.48;12.40;;;22.90;39.30;;;;;;6232318;27;85637;-59
2023/02/13 01:49:12;;;;;;;20.80;13.18;;;22.90;39.30;;;;;;6251588;27;83643;-60
2023/02/13 01:52:13;;;;;;;23.83;14.23;;;22.90;39.30;;;;;;6250819;27;83556;-59
2023/02/13 01:55:13;;;;;;;23.27;14.07;;;22.90;39.20;;;;;;6250311;27;84451;-59
2023/02/13 01:58:14;;;;;;;23.83;13.57;;;22.90;39.20;;;;;;6243111;27;84176;-59
2023/02/13 02:01:14;;;;;;;24.63;14.30;;;22.90;39.20;;;;;;6234781;27;90163;-58
2023/02/13 02:04:15;;;;;;;25.25;14.23;;;22.80;39.40;;;;;;6237839;27;83084;-59
2023/02/13 02:07:16;;;;;;;23.98;13.88;;;22.80;39.30;;;;;;6239428;27;85930;-59
2023/02/13 02:10:16;;;;;;;26.00;14.90;;;22.80;39.20;;;;;;6232665;27;85732;-59
2023/02/13 02:13:17;;;;;;;25.38;15.20;;;22.90;39.30;;;;;;6237954;27;84993;-59
2023/02/13 02:16:18;;;;;;;25.27;14.77;;;22.80;39.20;;;;;;6236668;27;86095;-59
2023/02/13 02:19:21;;;;;;;27.88;16.08;;;22.80;39.20;;;;;;6248237;27;84303;-58
2023/02/13 02:22:21;;;;;;;24.63;15.32;;;22.80;39.20;;;;;;6245042;27;83335;-60
2023/02/13 02:25:22;;;;;;;28.60;15.70;;;22.80;39.20;;;;;;6251046;27;83280;-59
2023/02/13 02:28:22;;;;;;;27.38;16.90;;;22.80;39.30;;;;;;6226267;27;85772;-56
2023/02/13 02:31:23;;;;;;;32.97;17.33;;;22.80;39.40;;;;;;6245572;27;85546;-55
2023/02/13 02:34:23;;;;;;;27.75;17.05;;;22.80;39.30;;;;;;6238159;27;83522;-56
2023/02/13 02:37:24;;;;;;;30.75;17.63;;;22.80;39.30;;;;;;6242699;27;84429;-57
2023/02/13 02:40:25;;;;;;;29.60;17.25;;;22.80;39.50;;;;;;6231387;27;83531;-57
2023/02/13 02:43:27;;;;;;;31.90;18.65;;;22.80;39.70;;;;;;6229783;27;86141;-57
2023/02/13 02:46:28;;;;;;;32.50;18.45;;;22.80;39.50;;;;;;6235903;27;86179;-57
2023/02/13 02:52:47;;;;;;;33.00;17.88;;;22.80;39.50;;;;;;6244228;27;83377;-57
2023/02/13 02:55:48;;;;;;;30.85;18.55;;;22.80;39.50;;;;;;6235443;27;85676;-57
2023/02/13 03:15:31;;;;;;;33.33;18.90;;;22.80;39.70;;;;;;6240049;27;83115;-58
2023/02/13 03:25:10;;;;;;;34.60;20.08;;;22.80;39.40;;;;;;6237739;27;83282;-59
2023/02/13 03:31:30;;;;;;;35.35;19.65;;;22.70;39.50;;;;;;6225355;27;87517;-59
2023/02/13 03:37:53;;;;;;;33.58;20.50;;;22.70;39.60;;;;;;6249351;27;82976;-57
2023/02/13 03:37:54;;;;;;;35.30;20.33;;;22.70;40.00;;;;;;6238604;27;83362;-59
2023/02/13 03:44:14;;;;;;;35.03;20.05;;;22.70;39.70;;;;;;6250048;27;86869;-57
2023/02/13 03:47:15;;;;;;;36.97;20.33;;;22.70;40.00;;;;;;6224466;27;83477;-58
2023/02/13 03:50:15;;;;;;;34.88;20.75;;;22.70;39.70;;;;;;6224024;27;85729;-59
2023/02/13 03:53:16;;;;;;;31.55;19.48;;;22.70;40.10;;;;;;6247372;27;82688;-58
2023/02/13 03:59:35;;;;;;;36.72;21.27;;;22.70;39.80;;;;;;6248189;27;83104;-57
2023/02/13 04:02:36;;;;;;;33.03;20.27;;;22.70;39.60;;;;;;6247433;27;83204;-58
2023/02/13 04:05:36;;;;;;;34.58;21.10;;;22.70;39.60;;;;;;6238148;27;83685;-58
2023/02/13 04:08:37;;;;;;;36.75;21.15;;;22.70;40.10;;;;;;6249010;27;83006;-57
2023/02/13 04:11:37;;;;;;;40.38;23.50;;;22.80;39.80;;;;;;6241192;27;83736;-58
2023/02/13 04:14:38;;;;;;;38.78;22.88;;;22.80;39.60;;;;;;6242250;27;84033;-61
2023/02/13 04:17:39;;;;;;;37.92;21.63;;;22.80;39.60;;;;;;6247527;27;84304;-58
2023/02/13 04:20:39;;;;;;;37.40;21.77;;;22.90;39.40;;;;;;6248786;27;85281;-58
2023/02/13 04:23:40;;;;;;;38.00;22.98;;;22.90;39.50;;;;;;6233371;27;86122;-58
2023/02/13 04:26:40;;;;;;;40.33;23.90;;;23.00;39.80;;;;;;6247440;27;83429;-57
2023/02/13 04:29:41;;;;;;;41.55;22.80;;;23.00;39.70;;;;;;6228614;27;82801;-57
2023/02/13 04:32:41;;;;;;;42.50;23.80;;;23.10;39.70;;;;;;6247963;27;83090;-58
2023/02/13 04:35:42;;;;;;;41.80;23.88;;;23.10;39.70;;;;;;6233221;27;85595;-57
2023/02/13 04:38:44;;;;;;;43.10;25.05;;;23.10;39.60;;;;;;6248596;27;85434;-58
2023/02/13 04:41:44;;;;;;;40.50;23.88;;;23.20;39.50;;;;;;6234762;27;82919;-58
2023/02/13 04:44:45;;;;;;;37.53;22.83;;;23.20;39.70;;;;;;6247525;27;83642;-58
2023/02/13 04:47:45;;;;;;;41.42;23.88;;;23.20;39.60;;;;;;6246592;27;83408;-58
2023/02/13 04:50:46;;;;;;;43.05;25.48;;;23.20;39.60;;;;;;6246133;27;82890;-58
2023/02/13 04:53:47;;;;;;;45.47;24.95;;;23.20;39.60;;;;;;6247247;27;84062;-58
2023/02/13 04:56:48;;;;;;;43.35;25.33;;;23.30;39.70;;;;;;6248317;27;83599;-58
2023/02/13 04:59:48;;;;;;;41.53;24.60;;;23.30;39.70;;;;;;6236151;27;84202;-58
2023/02/13 05:02:48;;;;;;;42.35;25.42;;;23.30;39.50;;;;;;6230618;27;84309;-58
2023/02/13 05:05:49;;;;;;;40.50;24.73;;;23.30;39.50;;;;;;6242699;27;88847;-57
2023/02/13 05:08:50;;;;;;;41.28;23.77;;;23.30;39.60;;;;;;6242303;27;83448;-56
2023/02/13 05:11:50;;;;;;;42.88;24.52;;;23.30;39.60;;;;;;6234699;27;83545;-65
2023/02/13 05:14:51;;;;;;;39.63;22.30;;;23.40;39.90;;;;;;6247494;27;82820;-58
2023/02/13 05:17:51;;;;;;;37.72;21.98;;;23.40;40.00;;;;;;6247516;27;84167;-57
2023/02/13 05:24:11;;;;;;;38.60;21.98;;;23.40;40.00;;;;;;6240330;27;85731;-58
2023/02/13 05:27:11;;;;;;;36.85;21.95;;;23.40;40.20;;;;;;6244644;27;84715;-72
2023/02/13 05:30:12;;;;;;;43.55;22.33;;;23.40;40.50;;;;;;6239011;27;83479;-59
2023/02/13 05:33:12;;;;;;;39.78;21.45;;;23.50;40.60;;;;;;6242455;27;83362;-59
2023/02/13 05:36:13;;;;;;;33.92;19.42;;;23.50;40.70;;;;;;6242846;27;83846;-59
2023/02/13 05:39:14;;;;;;;32.70;20.58;;;23.50;40.60;;;;;;6238141;27;82997;-60
2023/02/13 05:42:14;;;;;;;35.47;20.25;;;23.50;40.60;;;;;;6247232;27;83297;-60
2023/02/13 05:45:15;;;;;;;34.65;19.00;;;23.50;40.40;;;;;;6240819;27;82945;-68
2023/02/13 05:48:15;;;;;;;34.80;19.45;;;23.50;40.60;;;;;;6240423;27;82969;-59
2023/02/13 05:51:16;;;;;;;31.48;18.65;;;23.50;41.20;;;;;;6242022;27;83205;-59
2023/02/13 05:54:16;;;;;;;28.08;17.25;;;23.60;41.40;;;;;;6241907;27;83803;-58
2023/02/13 05:57:17;;;;;;;30.40;18.45;;;23.60;42.10;;;;;;6243881;27;83456;-54
2023/02/13 06:00:17;;;;;;;26.95;17.42;;;23.60;42.50;;;;;;6238583;27;83320;-58
2023/02/13 06:03:18;;;;;;;33.03;17.80;;;23.60;43.10;;;;;;6225421;27;83991;-57
2023/02/13 06:06:18;;;;;;;27.67;16.95;;;23.60;42.80;;;;;;6237250;27;83927;-58
2023/02/13 06:09:19;;;;;;;26.67;14.77;;;23.50;43.70;;;;;;6242478;27;83196;-57
2023/02/13 06:12:19;;;;;;;24.27;13.82;;;23.50;44.70;;;;;;6237473;27;87766;-56
2023/02/13 06:15:20;;;;;;;21.25;12.82;;;23.40;45.20;;;;;;6235284;27;84964;-63
2023/02/13 06:18:20;;;;;;;20.52;12.40;;;23.30;45.20;;;;;;6238449;27;85666;-53
2023/02/13 06:21:21;;;;;;;20.85;12.50;;;23.30;46.00;;;;;;6226315;27;88218;-52
2023/02/13 06:24:21;;;;;;;25.42;11.45;;;23.20;45.50;;;;;;6245701;27;82934;-51
2023/02/13 06:27:22;;;;;;;19.50;11.13;;;23.20;45.80;;;;;;6232776;27;83362;-57
2023/02/13 06:30:22;;;;;;;19.40;11.15;;;23.10;45.90;;;;;;6240444;27;83668;-50
2023/02/13 06:33:23;;;;;;;17.35;10.02;;;23.10;46.20;;;;;;6244117;27;83341;-53
2023/02/13 06:36:24;;;;;;;17.23;10.98;;;23.10;46.30;;;;;;6241398;27;83043;-54
2023/02/13 06:39:24;;;;;;;16.33;11.05;;;23.10;46.40;;;;;;6244925;27;83625;-52
2023/02/13 06:42:25;;;;;;;15.45;10.20;;;23.10;46.10;;;;;;6243438;27;84289;-53
2023/02/13 06:45:25;;;;;;;13.50;9.43;;;23.00;46.30;;;;;;6241234;27;83143;-56
2023/02/13 06:48:26;;;;;;;16.77;9.85;;;23.00;46.40;;;;;;6247865;27;82685;-63
2023/02/13 06:51:26;;;;;;;13.02;9.32;;;23.00;46.50;;;;;;6222669;27;80941;-60
2023/02/13 06:54:27;;;;;;;12.35;8.70;;;22.90;46.50;;;;;;6233147;27;80217;-55
2023/02/13 06:57:31;;;;;;;14.57;9.18;;;22.90;46.70;;;;;;6125400;27;83085;-51
2023/02/13 07:00:32;;;;;;;14.05;8.93;;;22.80;46.60;;;;;;6063730;27;82848;-51
2023/02/13 07:03:32;;;;;;;14.95;8.40;;;22.80;46.80;;;;;;6235715;27;83377;-54
2023/02/13 07:06:33;;;;;;;12.95;7.68;;;22.80;46.80;;;;;;6232774;27;83415;-55
2023/02/13 07:09:33;;;;;;;13.70;8.18;;;22.80;47.50;;;;;;6233189;27;80360;-54
2023/02/13 07:12:35;;;;;;;15.05;7.63;;;22.80;47.30;;;;;;6242168;27;80690;-55
2023/02/13 07:15:35;;;;;;;13.35;8.13;;;22.70;47.40;;;;;;6231522;27;80327;-54
2023/02/13 07:18:36;;;;;;;11.55;7.70;;;22.70;47.70;;;;;;6233910;27;81511;-55
2023/02/13 07:21:37;;;;;;;12.10;7.88;;;22.70;47.70;;;;;;6235308;27;84289;-56
2023/02/13 07:24:37;;;;;;;12.13;7.93;;;22.70;47.90;;;;;;6235675;27;85268;-56
2023/02/13 07:27:37;;;;;;;14.00;8.32;;;22.60;48.00;;;;;;6238848;27;80800;-54
2023/02/13 07:30:38;;;;;;;11.45;7.25;;;22.70;48.00;;;;;;6239720;27;80928;-57
2023/02/13 07:33:38;;;;;;;12.45;7.78;;;22.70;48.10;;;;;;6233641;27;82310;-54
2023/02/13 07:36:39;;;;;;;10.35;6.50;;;22.70;48.30;;;;;;6233007;27;84029;-56
2023/02/13 07:39:40;;;;;;;10.18;7.20;;;22.60;48.00;;;;;;6230809;27;80786;-54
2023/02/13 07:42:40;;;;;;;13.07;7.75;;;22.60;48.30;;;;;;6232289;27;80551;-63
2023/02/13 07:45:41;;;;;;;10.85;7.07;;;22.60;48.30;;;;;;6242121;27;80252;-65
2023/02/13 07:48:41;;;;;;;11.93;6.63;;;22.60;48.40;;;;;;6250700;27;80372;-66
2023/02/13 07:51:42;;;;;;;11.15;6.93;;;22.60;48.40;;;;;;6242118;27;80314;-62
2023/02/13 07:54:46;;;;;;;12.65;7.60;;;22.60;48.60;;;;;;6241044;27;83325;-55
2023/02/13 07:57:46;;;;;;;11.98;7.47;;;22.60;48.60;;;;;;6241558;27;80713;-52
2023/02/13 08:00:47;;;;;;;10.32;7.13;;;22.60;48.50;;;;;;6233070;27;85707;-54
2023/02/13 08:03:49;;;;;;;11.63;7.03;;;22.60;48.70;;;;;;6244115;27;81105;-56
2023/02/13 08:06:50;;;;;;;13.32;7.15;;;22.60;48.50;;;;;;6227438;27;83378;-65
2023/02/13 08:13:10;;;;;;;11.30;7.60;;;22.60;48.50;;;;;;6247222;27;80275;-51
2023/02/13 08:16:10;;;;;;;11.52;6.72;;;22.60;48.60;;;;;;6250084;27;82842;-55
2023/02/13 08:19:11;;;;;;;10.45;6.38;;;22.60;48.70;;;;;;6247466;27;80849;-53
2023/02/13 08:22:11;;;;;;;10.82;6.70;;;22.60;48.70;;;;;;6243780;27;81687;-54
2023/02/13 08:25:12;;;;;;;9.93;6.68;;;22.60;48.80;;;;;;6245611;27;80099;-54
2023/02/13 08:28:12;;;;;;;13.18;6.78;;;22.60;48.80;;;;;;6246281;27;90491;-55
2023/02/13 08:31:13;;;;;;;10.48;6.18;;;22.60;49.00;;;;;;6237022;27;80657;-52
2023/02/13 08:34:13;;;;;;;8.95;5.97;;;22.60;48.90;;;;;;6237414;27;81058;-55
2023/02/13 08:37:14;;;;;;;8.85;5.75;;;22.60;48.90;;;;;;6221753;27;86082;-52
2023/02/13 08:40:14;;;;;;;12.82;7.20;;;22.60;49.00;;;;;;6232175;27;85895;-58
2023/02/13 08:43:15;;;;;;;11.00;6.72;;;22.70;49.00;;;;;;6236170;27;80380;-58
2023/02/13 08:46:15;;;;;;;11.23;6.72;;;22.70;49.30;;;;;;6234198;27;81006;-58
2023/02/13 08:49:16;;;;;;;9.00;6.22;;;22.70;49.40;;;;;;6236368;27;80407;-56
2023/02/13 08:52:16;;;;;;;12.73;7.28;;;22.70;49.40;;;;;;6234524;27;80830;-56
2023/02/13 08:55:17;;;;;;;8.88;5.82;;;22.80;49.10;;;;;;6231953;27;82127;-56
2023/02/13 08:58:17;;;;;;;9.10;5.95;;;22.90;49.00;;;;;;6230831;27;82402;-57
2023/02/13 09:01:18;;;;;;;12.45;6.45;;;22.90;49.00;;;;;;6218672;27;82720;-57
2023/02/13 09:04:18;;;;;;;9.52;6.57;;;23.00;48.90;;;;;;6237682;27;81171;-55
2023/02/13 09:07:19;;;;;;;10.95;6.30;;;23.00;48.80;;;;;;6229958;27;83687;-57
2023/02/13 09:10:19;;;;;;;11.35;6.55;;;23.10;48.60;;;;;;6227314;27;83549;-58
2023/02/13 09:13:21;;;;;;;9.50;6.47;;;23.10;48.70;;;;;;6240603;27;82245;-51
2023/02/13 09:16:21;;;;;;;10.98;6.80;;;23.20;48.70;;;;;;6234852;27;80707;-57
2023/02/13 09:19:22;;;;;;;19.50;11.07;;;23.20;48.60;;;;;;6226316;27;82673;-57
2023/02/13 09:22:23;;;;;;;91.80;43.05;;;23.20;48.60;;;;;;6230146;27;83136;-58
2023/02/13 09:25:23;;;;;;;127.88;63.33;;;23.30;48.40;;;;;;6223598;27;86248;-58
2023/02/13 09:28:24;;;;;;;165.85;82.43;;;23.30;48.70;;;;;;6227557;27;83220;-57
2023/02/13 09:31:24;;;;;;;194.52;93.22;;;23.30;48.30;;;;;;6238047;27;90054;-57
2023/02/13 09:34:25;;;;;;;277.42;129.15;;;23.40;48.30;;;;;;6229363;27;83328;-57
2023/02/13 09:37:26;;;;;;;288.52;134.60;;;23.40;48.20;;;;;;6223529;27;85294;-57
2023/02/13 09:40:26;;;;;;;273.90;125.65;;;23.40;48.30;;;;;;6232395;27;86357;-59
2023/02/13 09:43:27;;;;;;;197.85;98.15;;;23.40;48.30;;;;;;6227867;27;85470;-59
2023/02/13 09:46:28;;;;;;;171.77;81.70;;;23.50;48.10;;;;;;6229256;27;85401;-58
2023/02/13 09:49:28;;;;;;;149.32;69.30;;;23.40;48.00;;;;;;6233056;27;83364;-59
2023/02/13 09:52:29;;;;;;;132.82;64.60;;;23.40;48.00;;;;;;6227269;27;83668;-58
2023/02/13 09:55:30;;;;;;;126.38;59.60;;;23.40;48.10;;;;;;6225992;27;83806;-58
2023/02/13 09:58:30;;;;;;;113.10;53.20;;;23.50;48.10;;;;;;6227942;27;83328;-58
2023/02/13 10:01:31;;;;;;;105.18;48.40;;;23.50;48.10;;;;;;6229741;27;87890;-57
2023/02/13 10:04:31;;;;;;;88.68;43.88;;;23.50;48.10;;;;;;6231234;27;84915;-58
2023/02/13 10:07:32;;;;;;;79.97;40.17;;;23.50;48.40;;;;;;6239821;27;87576;-52
2023/02/13 10:10:32;;;;;;;71.40;35.33;;;23.50;48.30;;;;;;6231250;27;83407;-51
2023/02/13 10:13:33;;;;;;;63.35;31.15;;;23.50;48.40;;;;;;6238318;27;86021;-52
2023/02/13 10:16:33;;;;;;;59.83;30.25;;;23.40;48.50;;;;;;6240041;27;82852;-49
2023/02/13 10:19:35;;;;;;;52.42;25.95;;;23.50;48.50;;;;;;6234219;27;83213;-55
2023/02/13 10:22:35;;;;;;;38.53;20.63;;;23.50;48.50;;;;;;6231332;27;83668;-52
2023/02/13 10:25:36;;;;;;;37.22;18.90;;;23.50;47.90;;;;;;6241670;27;83031;-54
2023/02/13 10:28:36;;;;;;;32.50;17.33;;;23.50;47.80;;;;;;6230740;27;84065;-53
2023/02/13 10:31:37;;;;;;;28.35;15.25;;;23.40;47.20;;;;;;6235512;27;83122;-55
2023/02/13 10:34:37;;;;;;;28.40;13.88;;;23.40;47.40;;;;;;6231618;27;88889;-67
2023/02/13 10:37:38;;;;;;;22.88;13.05;;;23.30;47.30;;;;;;6229473;27;84475;-66
2023/02/13 10:40:38;;;;;;;24.23;11.80;;;23.30;47.30;;;;;;6245619;27;83207;-66
2023/02/13 10:43:39;;;;;;;28.35;12.30;;;23.20;47.40;;;;;;6241557;27;83086;-68
2023/02/13 10:46:40;;;;;;;22.20;11.13;;;23.30;47.60;;;;;;6230519;27;84178;-65
2023/02/13 10:49:40;;;;;;;20.73;10.68;;;23.30;47.80;;;;;;6225747;27;88728;-53
2023/02/13 10:52:41;;;;;;;24.88;11.02;;;23.30;47.80;;;;;;6232086;27;83548;-47
2023/02/13 10:55:41;;;;;;;20.20;10.45;;;23.20;47.40;;;;;;6239605;27;83724;-54
2023/02/13 10:58:42;;;;;;;21.33;10.65;;;23.30;47.50;;;;;;6237461;27;84855;-53
2023/02/13 11:01:42;;;;;;;20.50;9.55;;;23.30;47.70;;;;;;6232871;27;84207;-49
2023/02/13 11:04:43;;;;;;;18.77;8.98;;;23.30;47.70;;;;;;6228992;27;83077;-71
2023/02/13 11:07:43;;;;;;;18.00;8.13;;;23.20;48.10;;;;;;6238142;27;80809;-66
2023/02/13 11:10:44;;;;;;;15.35;7.95;;;23.20;48.90;;;;;;6233070;27;80809;-69
2023/02/13 11:13:44;;;;;;;12.90;7.72;;;23.10;47.80;;;;;;6241631;27;87417;-66
2023/02/13 11:16:45;;;;;;;20.33;13.93;;;23.00;47.50;;;;;;6227626;27;83430;-61
2023/02/13 11:19:45;;;;;;;24.92;16.38;;;22.90;47.40;;;;;;6246052;27;83391;-64
2023/02/13 11:22:46;;;;;;;20.77;15.05;;;22.80;47.30;;;;;;6236253;27;83420;-62
2023/02/13 11:25:46;;;;;;;16.38;12.43;;;22.80;47.30;;;;;;6240347;27;84410;-55
2023/02/13 11:28:47;;;;;;;13.68;11.02;;;22.80;47.60;;;;;;6233529;27;84824;-53
2023/02/13 11:31:47;;;;;;;17.90;9.82;;;22.70;47.60;;;;;;6241192;27;84733;-55
2023/02/13 11:34:49;;;;;;;12.82;8.77;;;22.70;47.60;;;;;;6241831;27;83557;-51
2023/02/13 11:37:50;;;;;;;11.13;6.75;;;22.70;47.60;;;;;;6233906;27;82504;-53
2023/02/13 11:40:50;;;;;;;10.35;7.13;;;22.70;48.00;;;;;;6237431;27;80649;-53
2023/02/13 11:43:51;;;;;;;13.65;6.38;;;22.70;48.10;;;;;;6232159;27;83240;-55
2023/02/13 11:46:51;;;;;;;9.82;6.28;;;22.60;48.10;;;;;;6240376;27;80336;-53
2023/02/13 11:49:52;;;;;;;9.13;5.68;;;22.60;48.50;;;;;;6244813;27;81368;-54
2023/02/13 11:52:52;;;;;;;8.55;5.38;;;22.60;48.90;;;;;;6244219;27;80688;-53
2023/02/13 11:55:53;;;;;;;7.88;5.13;;;22.60;49.60;;;;;;6237704;27;80679;-54
2023/02/13 11:58:53;;;;;;;8.43;4.40;;;22.60;49.70;;;;;;6240066;27;81473;-55
2023/02/13 12:01:54;;;;;;;10.70;5.35;;;22.60;49.40;;;;;;6236736;27;80956;-51
2023/02/13 12:04:54;;;;;;;5.75;4.03;;;22.50;49.40;;;;;;6243053;27;81650;-52
2023/02/13 12:07:55;;;;;;;7.43;4.05;;;22.50;49.10;;;;;;6234196;27;80627;-54
2023/02/13 12:10:56;;;;;;;8.95;4.40;;;22.50;48.90;;;;;;6245755;27;80022;-55
2023/02/13 12:13:56;;;;;;;9.15;4.13;;;22.50;48.60;;;;;;6230631;27;80958;-54
2023/02/13 12:16:57;;;;;;;6.13;3.70;;;22.40;48.70;;;;;;6240105;27;81795;-55
2023/02/13 12:19:57;;;;;;;8.65;3.95;;;22.40;48.50;;;;;;6252257;27;81192;-54
2023/02/13 12:22:58;;;;;;;10.02;4.30;;;22.40;48.70;;;;;;6244374;27;80172;-54
2023/02/13 12:25:58;;;;;;;10.85;5.20;;;22.30;49.00;;;;;;6236741;27;80731;-54
2023/02/13 12:28:59;;;;;;;10.85;5.10;;;22.40;49.40;;;;;;6242509;27;80323;-53
2023/02/13 12:31:59;;;;;;;15.68;6.03;;;22.40;49.50;;;;;;6235062;27;83033;-52
2023/02/13 12:35:00;;;;;;;10.98;5.13;;;22.40;49.00;;;;;;6241773;27;80113;-52
2023/02/13 12:38:00;;;;;;;13.00;5.78;;;22.50;49.00;;;;;;6235878;27;86187;-51
2023/02/13 12:41:01;;;;;;;12.88;5.50;;;22.50;49.00;;;;;;6241934;27;81158;-52
2023/02/13 12:44:02;;;;;;;9.77;5.22;;;22.60;49.10;;;;;;6244549;27;81611;-49
2023/02/13 12:47:02;;;;;;;9.10;4.65;;;22.60;48.80;;;;;;6232186;27;80674;-52
2023/02/13 12:50:03;;;;;;;9.90;4.78;;;22.70;48.50;;;;;;6244651;27;80895;-52
2023/02/13 12:53:03;;;;;;;8.18;4.70;;;22.70;48.30;;;;;;6248530;27;80431;-55
2023/02/13 12:56:06;;;;;;;13.15;5.22;;;22.80;47.80;;;;;;6233521;27;80442;-48
2023/02/13 12:59:07;;;;;;;9.15;4.32;;;22.80;47.90;;;;;;6235069;27;80508;-54
2023/02/13 13:02:08;;;;;;;11.23;5.32;;;22.80;48.20;;;;;;6223186;27;83091;-56
2023/02/13 13:05:10;;;;;;;10.43;4.78;;;22.80;47.90;;;;;;6231415;27;80602;-54
2023/02/13 13:08:11;;;;;;;12.15;5.28;;;22.80;48.20;;;;;;6241575;27;80914;-54
2023/02/13 13:11:11;;;;;;;14.05;5.53;;;22.80;48.20;;;;;;6236576;27;81258;-63
2023/02/13 13:14:12;;;;;;;15.02;5.00;;;22.80;49.00;;;;;;6233662;27;82270;-64
2023/02/13 13:17:12;;;;;;;17.25;4.88;;;22.80;49.20;;;;;;6234729;27;81408;-65
2023/02/13 13:20:13;;;;;;;20.33;4.85;;;22.80;48.90;;;;;;6244524;27;80905;-64
2023/02/13 13:23:13;;;;;;;21.67;5.55;;;22.90;49.00;;;;;;6233267;27;80847;-64
2023/02/13 13:26:14;;;;;;;25.95;5.35;;;22.90;49.20;;;;;;6247092;27;80854;-64
2023/02/13 13:29:15;;;;;;;15.63;5.03;;;22.90;49.40;;;;;;6234731;27;86114;-63
2023/02/13 13:32:15;;;;;;;14.82;5.03;;;22.90;48.70;;;;;;6236789;27;80970;-65
2023/02/13 13:35:16;;;;;;;15.55;4.13;;;22.90;49.00;;;;;;6244222;27;80690;-66
2023/02/13 13:38:16;;;;;;;14.82;5.15;;;22.90;49.90;;;;;;6241150;27;81217;-65
2023/02/13 13:41:17;;;;;;;14.07;5.32;;;22.90;50.50;;;;;;6253402;27;81346;-65
2023/02/13 13:44:17;;;;;;;10.82;6.30;;;23.00;50.70;;;;;;6250889;27;80351;-65
2023/02/13 13:47:18;;;;;;;17.73;5.40;;;23.00;51.10;;;;;;6241177;27;80382;-64
2023/02/13 13:50:18;;;;;;;10.85;5.28;;;23.00;48.70;;;;;;6240820;27;83047;-65
2023/02/13 13:53:19;;;;;;;12.98;5.07;;;23.00;48.00;;;;;;6245171;27;80550;-65
2023/02/13 13:56:20;;;;;;;13.15;5.57;;;23.10;47.20;;;;;;6250597;27;80993;-64
2023/02/13 13:59:20;;;;;;;11.60;5.07;;;23.10;46.40;;;;;;6252911;27;80497;-64
2023/02/13 14:02:21;;;;;;;7.70;4.70;;;23.10;46.00;;;;;;6241427;27;80899;-65
2023/02/13 14:05:21;;;;;;;9.30;4.68;;;23.10;45.20;;;;;;6254238;27;82190;-67
2023/02/13 14:08:22;;;;;;;12.18;4.60;;;23.10;44.90;;;;;;6253962;27;80636;-66
2023/02/13 14:11:22;;;;;;;6.95;4.35;;;23.20;44.90;;;;;;6236537;27;81868;-64
2023/02/13 14:14:23;;;;;;;10.48;4.80;;;23.20;44.90;;;;;;6227235;27;81622;-63
2023/02/13 14:17:23;;;;;;;12.32;4.68;;;23.20;44.80;;;;;;6238701;27;80390;-65
2023/02/13 14:20:24;;;;;;;81.90;37.03;;;23.20;45.40;;;;;;6234338;27;81096;-65
2023/02/13 14:23:24;;;;;;;159.02;74.47;;;23.20;45.40;;;;;;6234558;27;82830;-63
2023/02/13 14:26:25;;;;;;;214.00;99.78;;;23.30;45.70;;;;;;6226065;27;84515;-63
2023/02/13 14:29:27;;;;;;;318.08;145.77;;;23.30;45.90;;;;;;6236094;27;83147;-67
2023/02/13 14:32:27;;;;;;;353.40;157.45;;;23.30;46.20;;;;;;6239679;27;85891;-65
2023/02/13 14:35:28;;;;;;;368.85;169.43;;;23.30;46.20;;;;;;6238182;27;85937;-65
2023/02/13 14:38:28;;;;;;;337.23;156.02;;;23.30;46.50;;;;;;6239209;27;85865;-65
2023/02/13 14:41:29;;;;;;;350.90;159.77;;;23.40;46.60;;;;;;6237786;27;85679;-62
2023/02/13 14:44:29;;;;;;;440.40;191.38;;;23.40;47.70;;;;;;6233970;27;86057;-62
2023/02/13 14:47:30;;;;;;;496.95;219.95;;;23.30;48.20;;;;;;6232745;27;89385;-61
2023/02/13 14:50:30;;;;;;;551.28;250.98;;;23.30;48.60;;;;;;6239046;27;86437;-67
2023/02/13 14:53:31;;;;;;;515.92;225.93;;;23.30;48.90;;;;;;6230075;27;85926;-61
2023/02/13 14:56:31;;;;;;;449.08;189.75;;;23.30;49.10;;;;;;6239557;27;89804;-62
2023/02/13 14:59:34;;;;;;;380.88;160.15;;;23.30;49.60;;;;;;6236225;27;85932;-62
2023/02/13 15:02:34;;;;;;;315.70;129.98;;;23.20;50.00;;;;;;6219055;27;87884;-62
2023/02/13 15:05:35;;;;;;;271.42;117.70;;;23.30;50.00;;;;;;6241269;27;93023;-63
2023/02/13 15:08:35;;;;;;;231.15;103.13;;;23.20;50.30;;;;;;6235789;27;87696;-63
2023/02/13 15:11:36;;;;;;;204.52;90.78;;;23.20;50.60;;;;;;6241597;27;86614;-63
2023/02/13 15:14:36;;;;;;;191.43;81.95;;;23.20;50.60;;;;;;6229726;27;85327;-64
2023/02/13 15:17:38;;;;;;;170.27;70.93;;;23.20;51.10;;;;;;6238784;27;83504;-64
2023/02/13 15:20:39;;;;;;;138.10;62.13;;;23.20;51.10;;;;;;6232922;27;84881;-63
2023/02/13 15:23:40;;;;;;;124.22;53.85;;;23.20;51.30;;;;;;6241523;27;83247;-62
2023/02/13 15:26:40;;;;;;;120.15;51.33;;;23.20;51.70;;;;;;6244260;27;83921;-62
2023/02/13 15:29:41;;;;;;;97.72;42.90;;;23.20;51.70;;;;;;6241989;27;86213;-63
2023/02/13 15:32:41;;;;;;;90.13;38.95;;;23.20;51.80;;;;;;6242297;27;84395;-61
2023/02/13 15:35:42;;;;;;;82.47;35.00;;;23.20;52.20;;;;;;6241949;27;84357;-64
2023/02/13 15:38:42;;;;;;;71.53;30.38;;;23.30;52.70;;;;;;6239720;27;87572;-60
2023/02/13 15:41:43;;;;;;;53.08;24.60;;;23.30;51.90;;;;;;6243505;27;83229;-59
2023/02/13 15:44:43;;;;;;;52.60;22.90;;;23.20;51.30;;;;;;6238025;27;86271;-62
2023/02/13 15:47:44;;;;;;;48.13;20.40;;;23.10;51.50;;;;;;6233223;27;88346;-61
2023/02/13 15:50:46;;;;;;;38.63;18.13;;;23.20;51.70;;;;;;6239596;27;82847;-61
2023/02/13 15:53:47;;;;;;;40.75;15.68;;;23.20;51.70;;;;;;6244190;27;85240;-61
2023/02/13 15:56:47;;;;;;;29.83;14.27;;;23.20;51.70;;;;;;6239814;27;83910;-63
2023/02/13 15:59:48;;;;;;;28.85;12.80;;;23.10;51.70;;;;;;6240226;27;84723;-62
2023/02/13 16:02:48;;;;;;;24.58;11.18;;;23.10;51.60;;;;;;6239759;27;87563;-63